Tijuana, México

2:33 AM PDT en Octubre 24, 2014 (GMT -0700)
Proteccion Civil Tijuana | Change Station
CLOSE
Current Station
Estación meteorológica personal
Location: TIJUANA, BAJA CALIFORNIA
Altura: 396 ft
Estaciones meteorológicas cercanas

Alt 396 ft 32.53 °N, 116.99 °W | Updated 11 minutes ago

Clear
Despejado
72.5 ° F
Sensación térmica 77 ° F
N
4.0
Viento Variable Viento desde NE

Hoy
Alta -- | Baja -- ° F
--% Posibilidad de precipitaciones
Ayer
Alta -- | Baja -- ° F
Precip. -- pul
6:58 AM 6:04 PM
Luna nueva, 0% visible
Presión 29.96 pul
Visibilidad 10.0 Millas
Nubes Despejado
Índice de calor 77 ° F
Punto de rocío 44 ° F
Humedad 36%
Precipitaciones 0.00 pul
Espesor de la nieve No disponible.
UV 0 de una escala de 12
Polen No disponible.
Calidad del aire No disponible.
Flu Activity No disponible.
METAR KSDM 240853Z AUTO 14004KT 10SM CLR 18/08 A2996

More Conditions Fewer Conditions

Presión 29.96 pul
Visibilidad 10.0 Millas
Nubes Despejado
Índice de calor 77 ° F
Punto de rocío 44 ° F
Humedad 36%
Precipitaciones 0.00 pul
Espesor de la nieve No disponible.
UV 0 de una escala de 12
Polen No disponible.
Calidad del aire No disponible.
Flu Activity No disponible.
METAR KSDM 240853Z AUTO 14004KT 10SM CLR 18/08 A2996

More Conditions Fewer Conditions

10-Day Weather Forecast

Almanac

Astronomía

Oct. 24, 2014 Salida Puesta
Hora real 6:58 AM PDT 6:04 PM PDT
Crepúsculo civil 6:33 AM PDT 6:29 PM PDT
Crepúsculo náutico 6:04 AM PDT 6:58 PM PDT
Crepúsculo astronómico 5:36 AM PDT 7:27 PM PDT
Luna 7:40 AM PDT 6:50 PM PDT
Horas de luz 11h 56m
Horas de luz
11h 06m
Tomorrow will be 1m 50s shorter.
Luna nueva, 0% of the Moon is Illuminated
Hoy
Luna nueva
Oct 30
Cuarto creciente
Nov 6
Luna llena
Nov 14
Cuarto menguante
Nov 22
Nueva

Extremos de ayer

Máximos del país Bajas del país

Community

WunderPhotos

Upload Photos

1,764,513 ¡fotos cargadas!

WunderBlogs® & News

Nearby

Calidad del aire

Not available.

Grosos de nieve

Not available.

Actividad de terremotos

Ciudad Distance Mag. Tiempo y dato
Brea, California 109 Millas 2.9 3:35 PM PDT
2014-10-23
Brea, California 109 Millas 2.8 3:34 PM PDT
2014-10-23
Corona, California 99 Millas 2.5 1:09 PM PDT
2014-10-23
Alberto Oviedo Mota, Mexico 104 Millas 3.5 9:05 PM PDT
2014-10-21
Magnitud mínima muestra es 2,5.

Temperaturas de aguas costeras

Lugar Temperatura
Sin partes meteorológicos de las estaciones

Estaciones meteorológicas cercanas